createdAt,value
2022-09-06T00:00:44.945Z,22.05
2022-09-06T00:01:44.935Z,22.02
2022-09-06T00:02:45.045Z,21.99
2022-09-06T00:03:45.024Z,21.99
2022-09-06T00:04:44.907Z,22.02
2022-09-06T00:05:44.895Z,21.98
2022-09-06T00:06:44.890Z,22.02
2022-09-06T00:07:45.811Z,21.89
2022-09-06T00:08:44.866Z,21.99
2022-09-06T00:09:44.862Z,22.02
2022-09-06T00:10:44.873Z,21.93
2022-09-06T00:11:44.823Z,21.89
2022-09-06T00:12:44.816Z,21.89
2022-09-06T00:13:44.833Z,21.86
2022-09-06T00:14:44.800Z,21.83
2022-09-06T00:15:44.921Z,21.91
2022-09-06T00:16:45.328Z,21.82
2022-09-06T00:17:44.765Z,21.89
2022-09-06T00:18:44.851Z,21.91
2022-09-06T00:19:44.754Z,21.86
2022-09-06T00:20:44.749Z,21.85
2022-09-06T00:21:44.719Z,21.86
2022-09-06T00:22:44.704Z,21.83
2022-09-06T00:23:44.718Z,21.81
2022-09-06T00:24:44.680Z,21.91
2022-09-06T00:25:45.312Z,21.83
2022-09-06T00:26:44.659Z,21.83
2022-09-06T00:27:44.658Z,21.85
2022-09-06T00:28:44.639Z,21.77
2022-09-06T00:29:44.644Z,21.86
2022-09-06T00:30:44.687Z,21.86
2022-09-06T00:31:44.598Z,21.81
2022-09-06T00:32:44.614Z,21.85
2022-09-06T00:33:44.584Z,21.74
2022-09-06T00:34:44.582Z,21.81
2022-09-06T00:35:44.562Z,21.83
2022-09-06T00:36:44.555Z,21.77
2022-09-06T00:37:44.538Z,21.82
2022-09-06T00:38:44.556Z,21.81
2022-09-06T00:39:45.342Z,21.83
2022-09-06T00:40:47.323Z,21.86
2022-09-06T00:41:44.494Z,21.90
2022-09-06T00:42:44.852Z,21.75
2022-09-06T00:43:47.840Z,21.83
2022-09-06T00:44:44.471Z,21.79
2022-09-06T00:45:44.447Z,21.74
2022-09-06T00:46:44.509Z,21.74
2022-09-06T00:47:44.430Z,21.83
2022-09-06T00:48:45.373Z,21.82
2022-09-06T00:49:45.328Z,21.73
2022-09-06T00:50:44.400Z,21.86
2022-09-06T00:51:44.409Z,21.86
2022-09-06T00:52:47.317Z,21.93
2022-09-06T00:53:44.373Z,21.85
2022-09-06T00:54:44.857Z,21.86
2022-09-06T00:55:44.345Z,21.93
2022-09-06T00:56:44.328Z,21.83
2022-09-06T00:57:44.324Z,21.86
2022-09-06T00:58:44.301Z,21.90
2022-09-06T00:59:44.297Z,21.89
2022-09-06T01:00:44.303Z,21.77
2022-09-06T01:01:45.025Z,21.79
2022-09-06T01:02:44.917Z,21.86
2022-09-06T01:03:44.252Z,21.82
2022-09-06T01:04:44.270Z,21.75
2022-09-06T01:05:45.301Z,21.74
2022-09-06T01:06:44.221Z,21.75
2022-09-06T01:07:44.818Z,21.79
2022-09-06T01:08:44.205Z,21.73
2022-09-06T01:09:44.182Z,21.71
2022-09-06T01:10:44.196Z,21.70
2022-09-06T01:11:44.353Z,21.70
2022-09-06T01:12:44.363Z,21.71
2022-09-06T01:13:44.137Z,21.70
2022-09-06T01:14:44.139Z,21.61
2022-09-06T01:15:50.878Z,21.71
2022-09-06T01:16:45.187Z,21.64
2022-09-06T01:17:44.094Z,21.67
2022-09-06T01:18:44.080Z,21.71
2022-09-06T01:19:44.819Z,21.70
2022-09-06T01:20:44.075Z,21.70
2022-09-06T01:21:44.073Z,21.66
2022-09-06T01:22:44.070Z,21.70
2022-09-06T01:23:44.035Z,21.61
2022-09-06T01:24:44.022Z,21.63
2022-09-06T01:25:44.012Z,21.68
2022-09-06T01:26:44.834Z,21.61
2022-09-06T01:27:43.987Z,21.58
2022-09-06T01:28:44.007Z,21.61
2022-09-06T01:29:43.965Z,21.63
2022-09-06T01:30:44.019Z,21.63
2022-09-06T01:31:46.837Z,21.64
2022-09-06T01:32:43.934Z,21.59
2022-09-06T01:33:43.941Z,21.66
2022-09-06T01:34:43.932Z,21.64
2022-09-06T01:35:43.901Z,21.55
2022-09-06T01:37:06.306Z,21.56
2022-09-06T01:37:44.876Z,21.58
2022-09-06T01:38:43.861Z,21.58
2022-09-06T01:39:44.913Z,21.53
2022-09-06T01:40:44.116Z,21.49
2022-09-06T01:41:43.839Z,21.52
2022-09-06T01:42:43.818Z,21.48
2022-09-06T01:43:43.821Z,21.56
2022-09-06T01:44:44.328Z,21.64
2022-09-06T01:45:43.835Z,21.61
2022-09-06T01:46:43.796Z,21.51
2022-09-06T01:47:43.776Z,21.48
2022-09-06T01:48:43.864Z,21.51
2022-09-06T01:49:43.751Z,21.48
2022-09-06T01:50:43.725Z,21.52
2022-09-06T01:51:43.729Z,21.51
2022-09-06T01:52:43.717Z,21.48
2022-09-06T01:53:44.726Z,21.52
2022-09-06T01:54:43.712Z,21.48
2022-09-06T01:55:43.718Z,21.52
2022-09-06T01:56:43.671Z,21.52
2022-09-06T01:57:46.336Z,21.51
2022-09-06T01:58:43.648Z,21.51
2022-09-06T01:59:44.655Z,21.51
2022-09-06T02:00:46.335Z,21.56
2022-09-06T02:01:43.721Z,21.56
2022-09-06T02:02:43.690Z,21.53
2022-09-06T02:03:43.626Z,21.52
2022-09-06T02:04:43.582Z,21.51
2022-09-06T02:05:43.582Z,21.51
2022-09-06T02:06:43.561Z,21.49
2022-09-06T02:07:43.575Z,21.48
2022-09-06T02:08:43.535Z,21.53
2022-09-06T02:09:45.358Z,21.45
2022-09-06T02:10:43.522Z,21.51
2022-09-06T02:11:44.339Z,21.52
2022-09-06T02:12:44.337Z,21.51
2022-09-06T02:13:43.486Z,21.48
2022-09-06T02:14:43.467Z,21.52
2022-09-06T02:15:43.464Z,21.58
2022-09-06T02:16:43.500Z,21.64
2022-09-06T02:17:46.871Z,21.64
2022-09-06T02:18:43.866Z,21.61
2022-09-06T02:19:43.423Z,21.70
2022-09-06T02:20:43.407Z,21.77
2022-09-06T02:21:43.390Z,21.82
2022-09-06T02:22:43.384Z,21.83
2022-09-06T02:23:43.398Z,21.75
2022-09-06T02:24:43.388Z,21.89
2022-09-06T02:25:43.356Z,21.85
2022-09-06T02:26:43.373Z,21.81
2022-09-06T02:27:43.325Z,21.85
2022-09-06T02:28:43.336Z,21.86
2022-09-06T02:29:43.399Z,21.85
2022-09-06T02:30:43.890Z,21.90
2022-09-06T02:31:43.841Z,21.86
2022-09-06T02:32:43.256Z,21.85
2022-09-06T02:33:43.273Z,21.86
2022-09-06T02:34:43.269Z,21.96
2022-09-06T02:35:43.270Z,21.89
2022-09-06T02:36:43.864Z,22.04
2022-09-06T02:37:43.836Z,21.96
2022-09-06T02:38:43.193Z,21.99
2022-09-06T02:39:43.247Z,21.94
2022-09-06T02:40:43.182Z,22.04
2022-09-06T02:41:43.199Z,21.99
2022-09-06T02:42:43.204Z,22.02
2022-09-06T02:43:43.162Z,22.02
2022-09-06T02:44:43.144Z,21.99
2022-09-06T02:45:43.157Z,22.06
2022-09-06T02:46:43.120Z,22.12
2022-09-06T02:47:43.134Z,22.08
2022-09-06T02:48:43.100Z,22.04
2022-09-06T02:49:45.849Z,22.14
2022-09-06T02:50:43.077Z,22.14
2022-09-06T02:51:43.103Z,22.12
2022-09-06T02:52:43.851Z,22.05
2022-09-06T02:53:43.047Z,21.98
2022-09-06T02:54:43.036Z,22.05
2022-09-06T02:55:43.021Z,22.02
2022-09-06T02:56:43.014Z,22.08
2022-09-06T02:57:43.012Z,22.04
2022-09-06T02:58:42.986Z,22.04
2022-09-06T02:59:45.838Z,21.96
2022-09-06T03:00:43.001Z,22.01
2022-09-06T03:01:43.049Z,21.99
2022-09-06T03:02:43.029Z,21.85
2022-09-06T03:03:43.842Z,21.89
2022-09-06T03:04:44.904Z,21.86
2022-09-06T03:05:49.838Z,21.86
2022-09-06T03:06:43.849Z,21.82
2022-09-06T03:07:43.843Z,21.83
2022-09-06T03:08:42.887Z,21.86
2022-09-06T03:09:42.884Z,21.89
2022-09-06T03:10:42.865Z,21.90
2022-09-06T03:11:45.351Z,21.83
2022-09-06T03:12:42.878Z,21.75
2022-09-06T03:13:43.352Z,21.83
2022-09-06T03:14:42.828Z,21.79
2022-09-06T03:15:42.807Z,21.79
2022-09-06T03:16:42.933Z,21.71
2022-09-06T03:17:42.779Z,21.64
2022-09-06T03:18:42.766Z,21.64
2022-09-06T03:19:42.764Z,21.66
2022-09-06T03:20:45.353Z,21.61
2022-09-06T03:21:42.767Z,21.67
2022-09-06T03:22:42.721Z,21.64
2022-09-06T03:23:42.715Z,21.56
2022-09-06T03:24:42.707Z,21.63
2022-09-06T03:25:42.710Z,21.66
2022-09-06T03:26:42.709Z,21.63
2022-09-06T03:27:42.680Z,21.59
2022-09-06T03:28:42.665Z,21.52
2022-09-06T03:29:42.653Z,21.52
2022-09-06T03:30:42.722Z,21.43
2022-09-06T03:31:42.633Z,21.40
2022-09-06T03:32:42.873Z,21.46
2022-09-06T03:33:49.346Z,21.46
2022-09-06T03:34:42.617Z,21.45
2022-09-06T03:35:42.888Z,21.46
2022-09-06T03:36:42.577Z,21.43
2022-09-06T03:37:42.558Z,21.45
2022-09-06T03:38:42.880Z,21.42
2022-09-06T03:39:42.620Z,21.37
2022-09-06T03:40:42.529Z,21.36
2022-09-06T03:41:42.521Z,21.33
2022-09-06T03:42:42.515Z,21.28
2022-09-06T03:43:42.517Z,21.19
2022-09-06T03:44:42.495Z,21.33
2022-09-06T03:45:42.926Z,21.33
2022-09-06T03:46:42.465Z,21.28
2022-09-06T03:47:42.448Z,21.21
2022-09-06T03:48:42.446Z,21.24
2022-09-06T03:49:43.359Z,21.19
2022-09-06T03:50:43.351Z,21.18
2022-09-06T03:51:42.885Z,21.26
2022-09-06T03:52:42.393Z,21.15
2022-09-06T03:53:42.392Z,21.11
2022-09-06T03:54:42.392Z,21.09
2022-09-06T03:55:42.373Z,21.12
2022-09-06T03:56:42.354Z,21.12
2022-09-06T03:57:42.346Z,21.13
2022-09-06T03:58:42.357Z,21.19
2022-09-06T03:59:42.327Z,21.22
2022-09-06T04:00:45.015Z,21.22
2022-09-06T04:01:42.336Z,21.21
2022-09-06T04:02:42.390Z,21.13
2022-09-06T04:03:42.273Z,21.08
2022-09-06T04:04:42.273Z,20.97
2022-09-06T04:05:42.256Z,20.90
2022-09-06T04:06:42.275Z,20.98
2022-09-06T04:07:42.250Z,20.94
2022-09-06T04:08:42.240Z,20.98
2022-09-06T04:09:42.212Z,20.93
2022-09-06T04:10:42.199Z,20.96
2022-09-06T04:11:45.029Z,20.96
2022-09-06T04:12:42.181Z,20.91
2022-09-06T04:13:42.172Z,20.88
2022-09-06T04:14:42.156Z,20.91
2022-09-06T04:15:42.145Z,20.91
2022-09-06T04:16:42.169Z,20.90
2022-09-06T04:17:42.389Z,20.91
2022-09-06T04:18:42.126Z,20.88
2022-09-06T04:19:42.110Z,20.94
2022-09-06T04:20:42.386Z,20.88
2022-09-06T04:21:42.077Z,20.94
2022-09-06T04:22:42.119Z,20.81
2022-09-06T04:23:42.051Z,20.79
2022-09-06T04:24:42.049Z,20.73
2022-09-06T04:25:42.039Z,20.82
2022-09-06T04:26:42.026Z,20.81
2022-09-06T04:27:42.021Z,20.85
2022-09-06T04:28:42.023Z,20.78
2022-09-06T04:29:42.018Z,20.78
2022-09-06T04:30:42.867Z,20.79
2022-09-06T04:31:42.020Z,20.88
2022-09-06T04:32:41.962Z,20.79
2022-09-06T04:33:41.946Z,20.73
2022-09-06T04:34:41.949Z,20.63
2022-09-06T04:35:42.866Z,20.64
2022-09-06T04:36:47.630Z,20.60
2022-09-06T04:37:45.864Z,20.66
2022-09-06T04:38:41.930Z,20.53
2022-09-06T04:39:41.940Z,20.51
2022-09-06T04:40:41.883Z,20.51
2022-09-06T04:41:41.872Z,20.42
2022-09-06T04:42:41.844Z,20.33
2022-09-06T04:43:41.830Z,20.30
2022-09-06T04:44:41.827Z,20.41
2022-09-06T04:45:41.929Z,20.34
2022-09-06T04:46:44.365Z,20.42
2022-09-06T04:47:41.785Z,20.42
2022-09-06T04:48:41.802Z,20.42
2022-09-06T04:49:41.764Z,20.37
2022-09-06T04:50:41.762Z,20.41
2022-09-06T04:51:41.740Z,20.38
2022-09-06T04:52:41.721Z,20.38
2022-09-06T04:53:41.739Z,20.38
2022-09-06T04:54:41.718Z,20.34
2022-09-06T04:55:41.720Z,20.40
2022-09-06T04:56:41.687Z,20.40
2022-09-06T04:57:45.165Z,20.41
2022-09-06T04:58:41.658Z,20.37
2022-09-06T04:59:41.642Z,20.41
2022-09-06T05:00:41.713Z,20.38
2022-09-06T05:01:41.659Z,20.42
2022-09-06T05:02:41.715Z,20.41
2022-09-06T05:03:41.597Z,20.44
2022-09-06T05:04:41.587Z,20.54
2022-09-06T05:05:41.588Z,20.57
2022-09-06T05:06:41.597Z,20.50
2022-09-06T05:07:41.588Z,20.53
2022-09-06T05:08:41.548Z,20.57
2022-09-06T05:09:41.542Z,20.64
2022-09-06T05:10:41.528Z,20.53
2022-09-06T05:11:41.532Z,20.60
2022-09-06T05:12:44.305Z,20.57
2022-09-06T05:13:41.903Z,20.57
2022-09-06T05:14:42.365Z,20.58
2022-09-06T05:15:41.460Z,20.60
2022-09-06T05:16:41.505Z,20.48
2022-09-06T05:17:41.456Z,20.53
2022-09-06T05:18:41.443Z,20.50
2022-09-06T05:19:42.377Z,20.40
2022-09-06T05:20:41.411Z,20.38
2022-09-06T05:21:42.365Z,20.35
2022-09-06T05:22:41.401Z,20.30
2022-09-06T05:23:41.403Z,20.38
2022-09-06T05:24:41.361Z,20.44
2022-09-06T05:25:41.358Z,20.44
2022-09-06T05:26:41.336Z,20.42
2022-09-06T05:27:41.330Z,20.53
2022-09-06T05:28:41.332Z,20.41
2022-09-06T05:29:41.333Z,20.41
2022-09-06T05:30:41.295Z,20.57
2022-09-06T05:31:41.392Z,20.42
2022-09-06T05:32:41.269Z,20.51
2022-09-06T05:33:41.260Z,20.54
2022-09-06T05:34:41.280Z,20.41
2022-09-06T05:35:41.244Z,20.41
2022-09-06T05:36:41.226Z,20.48
2022-09-06T05:37:41.208Z,20.42
2022-09-06T05:38:41.197Z,20.42
2022-09-06T05:39:41.227Z,20.48
2022-09-06T05:40:41.192Z,20.41
2022-09-06T05:41:41.168Z,20.50
2022-09-06T05:42:41.160Z,20.56
2022-09-06T05:43:41.151Z,20.42
2022-09-06T05:44:41.143Z,20.48
2022-09-06T05:45:41.191Z,20.51
2022-09-06T05:46:41.106Z,20.38
2022-09-06T05:47:41.884Z,20.38
2022-09-06T05:48:41.084Z,20.23
2022-09-06T05:49:41.094Z,20.19
2022-09-06T05:50:41.050Z,20.20
2022-09-06T05:51:41.081Z,20.20
2022-09-06T05:52:41.054Z,20.15
2022-09-06T05:53:41.883Z,20.23
2022-09-06T05:54:41.024Z,20.10
2022-09-06T05:55:42.980Z,20.10
2022-09-06T05:56:41.044Z,20.10
2022-09-06T05:57:41.884Z,20.20
2022-09-06T05:58:40.987Z,20.23
2022-09-06T05:59:40.971Z,20.15
2022-09-06T06:00:41.877Z,20.33
2022-09-06T06:01:40.970Z,20.25
2022-09-06T06:02:41.986Z,20.38
2022-09-06T06:03:40.924Z,20.37
2022-09-06T06:04:40.905Z,20.33
2022-09-06T06:05:40.901Z,20.10
2022-09-06T06:06:40.884Z,20.00
2022-09-06T06:07:40.921Z,20.04
2022-09-06T06:08:40.867Z,20.00
2022-09-06T06:09:40.914Z,19.92
2022-09-06T06:10:41.384Z,19.98
2022-09-06T06:11:43.387Z,20.01
2022-09-06T06:12:40.837Z,20.08
2022-09-06T06:13:40.811Z,20.12
2022-09-06T06:14:47.384Z,20.16
2022-09-06T06:15:41.405Z,20.07
2022-09-06T06:16:40.823Z,20.15
2022-09-06T06:17:40.777Z,20.12
2022-09-06T06:18:41.792Z,20.04
2022-09-06T06:19:40.734Z,19.89
2022-09-06T06:20:40.725Z,19.68
2022-09-06T06:21:40.708Z,19.64
2022-09-06T06:22:40.702Z,19.68
2022-09-06T06:23:40.723Z,19.64
2022-09-06T06:24:41.381Z,19.68
2022-09-06T06:25:40.669Z,19.58
2022-09-06T06:26:41.386Z,19.71
2022-09-06T06:27:40.648Z,19.76
2022-09-06T06:28:40.917Z,19.89
2022-09-06T06:29:41.392Z,20.04
2022-09-06T06:30:40.607Z,20.04
2022-09-06T06:31:41.412Z,20.01
2022-09-06T06:32:40.588Z,19.94
2022-09-06T06:33:40.607Z,19.98
2022-09-06T06:34:41.381Z,20.13
2022-09-06T06:35:40.555Z,20.19
2022-09-06T06:36:41.381Z,20.15
2022-09-06T06:37:40.559Z,20.13
2022-09-06T06:38:43.910Z,20.12
2022-09-06T06:39:41.610Z,20.22
2022-09-06T06:40:40.494Z,20.23
2022-09-06T06:41:40.482Z,20.31
2022-09-06T06:42:41.379Z,20.44
2022-09-06T06:43:41.389Z,20.44
2022-09-06T06:44:41.389Z,20.53
2022-09-06T06:45:40.501Z,20.50
2022-09-06T06:46:40.421Z,20.60
2022-09-06T06:48:01.421Z,20.57
2022-09-06T06:48:40.398Z,20.64
2022-09-06T06:49:45.410Z,20.61
2022-09-06T06:50:40.408Z,20.68
2022-09-06T06:51:40.412Z,20.75
2022-09-06T06:52:40.356Z,20.81
2022-09-06T06:53:40.348Z,20.82
2022-09-06T06:54:40.888Z,20.83
2022-09-06T06:55:40.334Z,20.87
2022-09-06T06:56:40.311Z,20.90
2022-09-06T06:57:40.891Z,20.90
2022-09-06T06:58:40.302Z,20.96
2022-09-06T06:59:40.895Z,20.97
2022-09-06T07:00:40.297Z,20.94
2022-09-06T07:01:43.045Z,21.03
2022-09-06T07:02:40.895Z,21.01
2022-09-06T07:03:40.224Z,20.98
2022-09-06T07:04:40.245Z,20.97
2022-09-06T07:06:16.684Z,21.05
2022-09-06T07:07:41.892Z,21.18
2022-09-06T07:08:42.900Z,21.21
2022-09-06T07:10:41.152Z,21.31
2022-09-06T07:11:40.160Z,21.27
2022-09-06T07:12:40.896Z,21.37
2022-09-06T07:13:40.131Z,21.51
2022-09-06T07:14:40.153Z,21.46
2022-09-06T07:15:40.887Z,21.56
2022-09-06T07:16:40.137Z,21.58
2022-09-06T07:17:40.083Z,21.55
2022-09-06T07:18:42.899Z,21.55
2022-09-06T07:21:41.029Z,21.52
2022-09-06T07:22:40.047Z,21.46
2022-09-06T07:24:46.894Z,21.37
2022-09-06T07:25:39.998Z,21.38
2022-09-06T07:27:49.106Z,21.38
2022-09-06T07:28:43.897Z,21.40
2022-09-06T07:29:41.008Z,21.40
2022-09-06T07:30:39.965Z,21.40
2022-09-06T07:32:40.965Z,21.46
2022-09-06T07:33:40.892Z,21.45
2022-09-06T07:34:39.889Z,21.46
2022-09-06T07:35:39.871Z,21.56
2022-09-06T07:36:40.896Z,21.38
2022-09-06T07:37:39.843Z,21.37
2022-09-06T07:38:39.853Z,21.48
2022-09-06T07:39:39.879Z,21.45
2022-09-06T07:40:40.398Z,21.40
2022-09-06T07:41:40.399Z,21.53
2022-09-06T07:42:39.936Z,21.49
2022-09-06T07:43:40.399Z,21.46
2022-09-06T07:44:39.776Z,21.52
2022-09-06T07:45:40.807Z,21.56
2022-09-06T07:46:39.844Z,21.64
2022-09-06T07:48:40.733Z,21.61
2022-09-06T07:49:40.233Z,21.61
2022-09-06T07:51:39.726Z,21.68
2022-09-06T07:53:13.031Z,21.70
2022-09-06T07:53:40.673Z,21.75
2022-09-06T07:54:40.424Z,21.79
2022-09-06T07:55:39.639Z,21.74
2022-09-06T07:56:39.665Z,21.81
2022-09-06T07:57:39.963Z,21.90
2022-09-06T07:58:41.424Z,21.90
2022-09-06T07:59:42.877Z,22.05
2022-09-06T08:00:42.502Z,22.01
2022-09-06T08:01:39.658Z,22.02
2022-09-06T08:02:40.909Z,22.04
2022-09-06T08:03:39.573Z,22.21
2022-09-06T08:04:39.579Z,22.20
2022-09-06T08:07:41.440Z,22.19
2022-09-06T08:09:40.524Z,22.23
2022-09-06T08:10:39.501Z,22.31
2022-09-06T08:11:39.495Z,22.29
2022-09-06T08:12:39.467Z,22.29
2022-09-06T08:13:39.510Z,22.27
2022-09-06T08:14:39.444Z,22.35
2022-09-06T08:15:41.633Z,22.42
2022-09-06T08:16:42.512Z,22.42
2022-09-06T08:17:40.394Z,22.45
2022-09-06T08:18:39.396Z,22.46
2022-09-06T08:19:39.425Z,22.54
2022-09-06T08:20:39.909Z,22.54
2022-09-06T08:21:39.389Z,22.60
2022-09-06T08:22:39.362Z,22.75
2022-09-06T08:23:41.913Z,22.81
2022-09-06T08:24:39.905Z,22.84
2022-09-06T08:25:39.347Z,22.88
2022-09-06T08:26:39.351Z,22.89
2022-09-06T08:27:39.305Z,23.03
2022-09-06T08:28:39.306Z,23.04
2022-09-06T08:29:39.911Z,22.97
2022-09-06T08:30:39.298Z,22.97
2022-09-06T08:31:39.331Z,22.96
2022-09-06T08:32:39.254Z,22.97
2022-09-06T08:33:39.247Z,23.09
2022-09-06T08:34:39.233Z,23.09
2022-09-06T08:35:39.220Z,23.11
2022-09-06T08:36:39.449Z,23.09
2022-09-06T08:37:39.198Z,23.14
2022-09-06T08:38:39.189Z,23.19
2022-09-06T08:39:39.514Z,23.19
2022-09-06T08:40:39.173Z,23.21
2022-09-06T08:41:39.172Z,23.26
2022-09-06T08:42:39.143Z,23.38
2022-09-06T08:43:39.132Z,23.35
2022-09-06T08:45:40.105Z,23.42
2022-09-06T08:46:39.147Z,23.47
2022-09-06T08:47:39.086Z,23.52
2022-09-06T08:48:39.090Z,23.54
2022-09-06T08:49:39.109Z,23.54
2022-09-06T08:50:39.915Z,23.49
2022-09-06T08:51:39.036Z,23.53
2022-09-06T08:52:45.255Z,23.57
2022-09-06T08:53:40.917Z,23.54
2022-09-06T08:54:39.003Z,23.68
2022-09-06T08:55:39.921Z,23.72
2022-09-06T08:56:38.989Z,23.78
2022-09-06T08:57:40.416Z,23.84
2022-09-06T08:58:39.944Z,23.90
2022-09-06T08:59:38.951Z,24.02
2022-09-06T09:00:39.999Z,24.05
2022-09-06T09:01:38.989Z,24.05
2022-09-06T09:02:38.916Z,24.05
2022-09-06T09:03:38.957Z,24.06
2022-09-06T09:04:38.895Z,24.12
2022-09-06T09:05:38.900Z,24.08
2022-09-06T09:06:39.411Z,24.08
2022-09-06T09:07:38.867Z,24.12
2022-09-06T09:08:38.916Z,24.16
2022-09-06T09:09:38.851Z,24.18
2022-09-06T09:10:41.413Z,24.18
2022-09-06T09:11:40.886Z,24.30
2022-09-06T09:12:38.807Z,24.30
2022-09-06T09:13:38.807Z,24.23
2022-09-06T09:14:38.799Z,24.24
2022-09-06T09:15:40.535Z,24.27
2022-09-06T09:16:38.875Z,24.33
2022-09-06T09:17:39.414Z,24.34
2022-09-06T09:18:45.422Z,24.31
2022-09-06T09:19:42.480Z,24.49
2022-09-06T09:20:38.943Z,24.64
2022-09-06T09:21:38.752Z,24.61
2022-09-06T09:22:38.723Z,24.70
2022-09-06T09:23:38.693Z,24.67
2022-09-06T09:24:38.677Z,24.80
2022-09-06T09:25:38.674Z,24.83
2022-09-06T09:26:38.951Z,24.89
2022-09-06T09:27:38.649Z,24.99
2022-09-06T09:28:38.641Z,24.99
2022-09-06T09:29:41.469Z,25.08
2022-09-06T09:31:39.697Z,25.14
2022-09-06T09:32:39.644Z,25.12
2022-09-06T09:33:38.582Z,25.26
2022-09-06T09:34:39.451Z,25.39
2022-09-06T09:35:38.562Z,25.49
2022-09-06T09:36:38.954Z,25.59
2022-09-06T09:37:46.097Z,25.49
2022-09-06T09:38:39.530Z,25.61
2022-09-06T09:39:38.596Z,25.63
2022-09-06T09:40:39.435Z,25.71
2022-09-06T09:41:39.423Z,25.71
2022-09-06T09:42:38.485Z,25.85
2022-09-06T09:43:39.455Z,25.82
2022-09-06T09:44:38.463Z,25.78
2022-09-06T09:45:38.452Z,25.74
2022-09-06T09:46:39.566Z,25.79
2022-09-06T09:47:38.499Z,25.81
2022-09-06T09:48:38.445Z,25.82
2022-09-06T09:49:38.415Z,25.94
2022-09-06T09:50:39.438Z,25.82
2022-09-06T09:51:38.391Z,25.79
2022-09-06T09:52:40.920Z,26.00
2022-09-06T09:53:38.361Z,25.90
2022-09-06T09:54:38.489Z,26.04
2022-09-06T09:55:38.355Z,26.16
2022-09-06T09:56:38.334Z,26.13
2022-09-06T09:57:38.316Z,26.29
2022-09-06T09:58:38.309Z,26.31
2022-09-06T09:59:38.319Z,26.41
2022-09-06T10:00:38.458Z,26.39
2022-09-06T10:01:38.275Z,26.53
2022-09-06T10:02:38.264Z,26.57
2022-09-06T10:05:38.236Z,26.71
2022-09-06T10:07:39.206Z,26.72
2022-09-06T10:08:44.934Z,26.69
2022-09-06T10:09:38.948Z,26.75
2022-09-06T10:10:38.192Z,26.69
2022-09-06T10:11:38.944Z,26.79
2022-09-06T10:12:38.146Z,26.81
2022-09-06T10:13:38.146Z,26.73
2022-09-06T10:14:38.183Z,26.84
2022-09-06T10:15:42.005Z,26.73
2022-09-06T10:16:38.933Z,26.86
2022-09-06T10:17:38.118Z,26.96
2022-09-06T10:18:38.083Z,26.98
2022-09-06T10:19:38.093Z,27.05
2022-09-06T10:20:38.066Z,26.93
2022-09-06T10:21:38.060Z,26.88
2022-09-06T10:22:38.041Z,26.69
2022-09-06T10:24:39.013Z,26.60
2022-09-06T10:25:38.040Z,26.71
2022-09-06T10:26:38.028Z,26.83
2022-09-06T10:28:01.544Z,27.01
2022-09-06T10:28:38.971Z,27.08
2022-09-06T10:29:38.479Z,27.20
2022-09-06T10:30:37.962Z,27.24
2022-09-06T10:31:39.197Z,27.25
2022-09-06T10:32:37.928Z,27.20
2022-09-06T10:33:37.936Z,27.23
2022-09-06T10:34:37.910Z,27.39
2022-09-06T10:35:37.911Z,27.33
2022-09-06T10:36:37.910Z,27.27
2022-09-06T10:37:37.895Z,27.27
2022-09-06T10:38:37.906Z,27.23
2022-09-06T10:39:37.931Z,27.28
2022-09-06T10:40:37.843Z,27.46
2022-09-06T10:41:37.831Z,27.59
2022-09-06T10:42:37.841Z,27.77
2022-09-06T10:43:37.859Z,27.71
2022-09-06T10:44:37.804Z,27.53
2022-09-06T10:45:37.789Z,27.50
2022-09-06T10:46:37.824Z,27.55
2022-09-06T10:47:37.767Z,27.76
2022-09-06T10:48:37.764Z,27.91
2022-09-06T10:49:37.768Z,27.96
2022-09-06T10:50:37.762Z,27.98
2022-09-06T10:51:37.726Z,27.84
2022-09-06T10:52:37.747Z,27.93
2022-09-06T10:53:37.701Z,27.98
2022-09-06T10:54:37.702Z,27.83
2022-09-06T10:55:37.680Z,27.90
2022-09-06T10:56:37.690Z,27.88
2022-09-06T10:59:39.118Z,28.06
2022-09-06T11:00:37.624Z,28.15
2022-09-06T11:01:40.141Z,28.18
2022-09-06T11:02:37.886Z,28.30
2022-09-06T11:05:38.869Z,28.51
2022-09-06T11:06:37.581Z,28.27
2022-09-06T11:07:37.702Z,28.32
2022-09-06T11:09:38.536Z,28.32
2022-09-06T11:10:37.515Z,28.50
2022-09-06T11:11:37.544Z,28.61
2022-09-06T11:12:37.501Z,28.72
2022-09-06T11:13:37.510Z,28.80
2022-09-06T11:14:37.478Z,28.80
2022-09-06T11:15:37.503Z,28.79
2022-09-06T11:16:37.482Z,28.62
2022-09-06T11:17:37.450Z,28.52
2022-09-06T11:18:37.433Z,28.57
2022-09-06T11:19:37.427Z,28.51
2022-09-06T11:20:37.412Z,28.62
2022-09-06T11:21:37.418Z,28.61
2022-09-06T11:22:37.409Z,28.67
2022-09-06T11:23:37.393Z,28.58
2022-09-06T11:24:37.380Z,28.69
2022-09-06T11:25:37.365Z,28.77
2022-09-06T11:26:37.351Z,28.94
2022-09-06T11:27:37.364Z,29.00
2022-09-06T11:28:38.264Z,29.18
2022-09-06T11:29:38.389Z,29.18
2022-09-06T11:30:37.313Z,29.21
2022-09-06T11:32:38.296Z,29.25
2022-09-06T11:33:37.489Z,29.29
2022-09-06T11:34:37.287Z,29.29
2022-09-06T11:35:37.270Z,29.32
2022-09-06T11:36:37.237Z,29.30
2022-09-06T11:37:37.226Z,29.41
2022-09-06T11:38:37.228Z,29.41
2022-09-06T11:40:38.203Z,29.33
2022-09-06T11:41:37.363Z,29.21
2022-09-06T11:42:37.192Z,29.08
2022-09-06T11:43:37.986Z,29.20
2022-09-06T11:44:37.175Z,29.29
2022-09-06T11:45:37.163Z,29.45
2022-09-06T11:46:39.988Z,29.63
2022-09-06T11:47:39.962Z,29.67
2022-09-06T11:48:37.105Z,29.57
2022-09-06T11:49:41.456Z,29.62
2022-09-06T11:50:37.091Z,29.63
2022-09-06T11:51:37.962Z,29.71
2022-09-06T11:52:38.995Z,29.82
2022-09-06T11:53:37.486Z,29.86
2022-09-06T11:54:37.043Z,30.11
2022-09-06T11:55:37.958Z,30.26
2022-09-06T11:56:37.052Z,30.37
2022-09-06T11:57:39.964Z,30.34
2022-09-06T11:58:38.006Z,30.32
2022-09-06T11:59:36.991Z,30.45
2022-09-06T12:00:36.989Z,30.44
2022-09-06T12:01:36.968Z,30.44
2022-09-06T12:02:37.546Z,30.42
2022-09-06T12:04:39.469Z,30.57
2022-09-06T12:05:37.464Z,30.56
2022-09-06T12:06:36.940Z,30.68
2022-09-06T12:07:37.464Z,30.76
2022-09-06T12:08:37.460Z,30.70
2022-09-06T12:09:36.918Z,30.28
2022-09-06T12:10:37.459Z,30.23
2022-09-06T12:11:36.875Z,30.19
2022-09-06T12:12:36.869Z,30.21
2022-09-06T12:13:36.843Z,30.32
2022-09-06T12:14:36.833Z,30.42
2022-09-06T12:15:36.928Z,30.49
2022-09-06T12:16:36.814Z,30.53
2022-09-06T12:17:36.795Z,30.59
2022-09-06T12:18:36.814Z,30.75
2022-09-06T12:19:39.854Z,30.70
2022-09-06T12:20:37.764Z,30.86
2022-09-06T12:21:36.759Z,30.98
2022-09-06T12:22:36.744Z,31.09
2022-09-06T12:23:36.730Z,31.18
2022-09-06T12:24:37.479Z,31.18
2022-09-06T12:25:36.733Z,31.03
2022-09-06T12:26:36.702Z,30.98
2022-09-06T12:27:36.693Z,30.32
2022-09-06T12:28:37.497Z,30.15
2022-09-06T12:29:36.912Z,30.26
2022-09-06T12:30:36.684Z,30.44
2022-09-06T12:31:36.821Z,30.56
2022-09-06T12:32:37.836Z,30.78
2022-09-06T12:33:38.874Z,30.79
2022-09-06T12:34:39.112Z,30.83
2022-09-06T12:36:37.616Z,30.75
2022-09-06T12:37:36.589Z,30.64
2022-09-06T12:38:36.570Z,30.70
2022-09-06T12:39:37.534Z,30.93
2022-09-06T12:40:36.575Z,31.05
2022-09-06T12:41:41.681Z,31.04
2022-09-06T12:42:37.537Z,31.01
2022-09-06T12:43:36.582Z,31.01
2022-09-06T12:44:37.482Z,31.12
2022-09-06T12:45:37.476Z,30.66
2022-09-06T12:46:36.524Z,30.46
2022-09-06T12:47:37.478Z,30.53
2022-09-06T12:48:36.970Z,30.22
2022-09-06T12:49:37.531Z,30.26
2022-09-06T12:50:36.442Z,30.38
2022-09-06T12:51:36.460Z,30.48
2022-09-06T12:52:36.404Z,30.75
2022-09-06T12:53:36.493Z,30.88
2022-09-06T12:54:38.979Z,30.90
2022-09-06T12:55:36.391Z,31.00
2022-09-06T12:56:36.416Z,30.97
2022-09-06T12:57:36.396Z,31.16
2022-09-06T12:58:36.404Z,31.00
2022-09-06T12:59:37.385Z,31.20
2022-09-06T13:00:36.344Z,31.28
2022-09-06T13:01:36.538Z,30.97
2022-09-06T13:02:36.489Z,30.53
2022-09-06T13:03:36.311Z,30.32
2022-09-06T13:04:36.299Z,30.51
2022-09-06T13:05:36.972Z,30.76
2022-09-06T13:06:36.279Z,30.97
2022-09-06T13:07:36.987Z,31.13
2022-09-06T13:08:36.319Z,31.23
2022-09-06T13:09:38.977Z,31.56
2022-09-06T13:10:36.228Z,31.30
2022-09-06T13:11:36.232Z,31.40
2022-09-06T13:12:36.215Z,31.30
2022-09-06T13:13:36.196Z,31.35
2022-09-06T13:14:36.187Z,31.37
2022-09-06T13:15:38.117Z,31.31
2022-09-06T13:16:36.178Z,31.30
2022-09-06T13:17:36.172Z,31.41
2022-09-06T13:18:36.152Z,31.50
2022-09-06T13:19:36.135Z,31.53